Time;durP1;ratioP1;P1;durP2;ratioP2;P2;SDS_P1;SDS_P2;PMS_P1;PMS_P2;Temp;Humidity;BMP_temperature;BMP_pressure;BME280_temperature;BME280_humidity;BME280_pressure;Samples;Min_cycle;Max_cycle;Signal;HPM_P1;HPM_P2
2023/04/08 00:02:07;;;;;;;7.18;4.78;;;;;;;;;;5031024;28;20030;-89
2023/04/08 00:04:32;;;;;;;10.52;6.18;;;;;;;;;;5029590;28;20034;-89
2023/04/08 00:06:58;;;;;;;12.48;6.53;;;;;;;;;;5015734;28;20508;-89
2023/04/08 00:09:23;;;;;;;11.32;6.55;;;;;;;;;;5011810;28;20048;-88
2023/04/08 00:11:48;;;;;;;7.28;5.10;;;;;;;;;;5024150;28;20552;-87
2023/04/08 00:14:52;;;;;;;10.68;5.93;;;;;;;;;;5033308;28;20050;-87
2023/04/08 00:17:18;;;;;;;9.65;5.40;;;;;;;;;;5031042;28;20400;-88
2023/04/08 00:19:48;;;;;;;12.27;6.78;;;;;;;;;;5014205;28;21353;-88
2023/04/08 00:22:14;;;;;;;10.88;5.38;;;;;;;;;;5012760;28;20018;-87
2023/04/08 00:24:39;;;;;;;9.98;5.18;;;;;;;;;;5028095;28;20026;-88
2023/04/08 00:27:05;;;;;;;9.98;6.63;;;;;;;;;;5031595;28;20013;-87
2023/04/08 00:29:31;;;;;;;8.77;5.30;;;;;;;;;;5031915;28;20331;-86
2023/04/08 00:31:56;;;;;;;9.85;5.65;;;;;;;;;;5013424;28;20052;-86
2023/04/08 00:37:43;;;;;;;8.50;5.10;;;;;;;;;;5033821;28;20052;-87
2023/04/08 00:40:29;;;;;;;5.90;4.32;;;;;;;;;;5016526;28;20025;-88
2023/04/08 00:42:57;;;;;;;12.23;5.85;;;;;;;;;;5024389;28;20070;-87
2023/04/08 00:45:23;;;;;;;10.77;6.20;;;;;;;;;;5013881;28;20099;-86
2023/04/08 00:47:51;;;;;;;10.38;6.10;;;;;;;;;;5032229;28;20029;-86
2023/04/08 00:50:17;;;;;;;7.65;5.20;;;;;;;;;;5011474;28;20693;-85
2023/04/08 00:52:42;;;;;;;11.77;6.72;;;;;;;;;;5009671;28;20022;-87
2023/04/08 00:55:08;;;;;;;10.15;5.35;;;;;;;;;;5013689;28;20025;-88
2023/04/08 00:57:34;;;;;;;11.70;6.05;;;;;;;;;;5013395;28;20022;-86
2023/04/08 00:59:59;;;;;;;11.05;5.82;;;;;;;;;;5031654;28;20029;-86
2023/04/08 01:02:34;;;;;;;8.05;5.00;;;;;;;;;;5034648;28;21669;-86
2023/04/08 01:05:04;;;;;;;9.65;5.70;;;;;;;;;;5034096;28;20026;-86
2023/04/08 01:07:35;;;;;;;8.55;5.22;;;;;;;;;;5016100;28;20029;-86
2023/04/08 01:10:05;;;;;;;8.82;5.68;;;;;;;;;;5026491;28;20022;-86
2023/04/08 01:12:35;;;;;;;8.65;5.43;;;;;;;;;;5016108;28;20072;-86
2023/04/08 01:15:06;;;;;;;7.78;5.70;;;;;;;;;;5036564;28;20014;-86
2023/04/08 01:17:33;;;;;;;9.15;5.40;;;;;;;;;;5024550;28;20446;-86
2023/04/08 01:20:00;;;;;;;13.10;6.68;;;;;;;;;;5014226;28;20013;-84
2023/04/08 01:22:50;;;;;;;11.48;6.30;;;;;;;;;;5037380;28;20024;-86
2023/04/08 01:25:20;;;;;;;12.15;6.47;;;;;;;;;;5015874;28;20040;-85
2023/04/08 01:27:48;;;;;;;9.68;6.57;;;;;;;;;;5031779;28;20022;-85
2023/04/08 01:30:16;;;;;;;10.32;6.75;;;;;;;;;;5027613;28;20017;-85
2023/04/08 01:32:43;;;;;;;10.68;7.10;;;;;;;;;;5037966;28;20025;-86
2023/04/08 01:35:09;;;;;;;12.63;6.85;;;;;;;;;;5035275;28;20465;-85
2023/04/08 01:37:35;;;;;;;12.32;7.47;;;;;;;;;;5035586;28;20144;-87
2023/04/08 01:40:02;;;;;;;9.25;6.50;;;;;;;;;;5036036;28;20022;-86
2023/04/08 01:42:28;;;;;;;10.73;7.18;;;;;;;;;;5037548;28;20017;-87
2023/04/08 01:44:56;;;;;;;11.65;7.32;;;;;;;;;;5019332;28;20025;-86
2023/04/08 01:47:23;;;;;;;11.63;6.90;;;;;;;;;;5041011;28;20017;-85
2023/04/08 01:49:50;;;;;;;12.35;6.47;;;;;;;;;;5024391;28;20024;-86
2023/04/08 01:52:18;;;;;;;9.80;6.65;;;;;;;;;;5025850;28;20034;-84
2023/04/08 01:54:44;;;;;;;12.20;6.20;;;;;;;;;;5044064;28;20017;-88
2023/04/08 01:57:13;;;;;;;10.95;6.78;;;;;;;;;;5045361;28;20056;-86
2023/04/08 01:59:39;;;;;;;11.88;6.18;;;;;;;;;;5045959;28;20045;-86
2023/04/08 02:02:08;;;;;;;13.70;7.25;;;;;;;;;;5020600;28;20061;-87
2023/04/08 02:04:34;;;;;;;10.30;6.03;;;;;;;;;;5033970;28;20045;-86
2023/04/08 02:07:01;;;;;;;15.85;7.55;;;;;;;;;;5036209;28;20093;-86
2023/04/08 02:09:27;;;;;;;11.00;6.97;;;;;;;;;;5017072;28;20013;-87
2023/04/08 02:11:52;;;;;;;9.77;6.63;;;;;;;;;;5030900;28;20105;-87
2023/04/08 02:14:17;;;;;;;12.88;6.72;;;;;;;;;;5031309;28;20036;-87
2023/04/08 02:16:51;;;;;;;11.35;6.82;;;;;;;;;;5030381;28;20032;-87
2023/04/08 02:19:26;;;;;;;12.25;7.47;;;;;;;;;;5028958;28;20022;-86
2023/04/08 02:21:56;;;;;;;13.00;7.50;;;;;;;;;;5010020;28;20033;-84
2023/04/08 02:24:21;;;;;;;13.48;7.38;;;;;;;;;;5009901;28;20022;-83
2023/04/08 02:26:50;;;;;;;11.35;7.40;;;;;;;;;;5028049;28;20044;-84
2023/04/08 02:29:17;;;;;;;11.85;6.85;;;;;;;;;;5008586;28;20029;-83
2023/04/08 02:31:43;;;;;;;16.35;7.70;;;;;;;;;;5026024;28;20037;-84
2023/04/08 02:34:13;;;;;;;12.25;6.82;;;;;;;;;;5009744;28;20029;-83
2023/04/08 02:36:39;;;;;;;13.25;7.28;;;;;;;;;;5032805;28;20040;-86
2023/04/08 02:39:05;;;;;;;14.85;7.63;;;;;;;;;;5020131;28;20417;-87
2023/04/08 02:41:30;;;;;;;12.35;7.20;;;;;;;;;;5018220;28;20619;-86
2023/04/08 02:43:56;;;;;;;11.85;6.95;;;;;;;;;;5032480;28;20477;-86
2023/04/08 02:46:22;;;;;;;12.05;6.50;;;;;;;;;;5030851;28;20030;-87
2023/04/08 02:48:47;;;;;;;11.48;6.38;;;;;;;;;;5033878;28;20025;-87
2023/04/08 02:51:13;;;;;;;12.07;7.00;;;;;;;;;;5034543;28;20013;-87
2023/04/08 02:53:38;;;;;;;13.75;7.90;;;;;;;;;;5034006;28;20026;-87
2023/04/08 02:56:04;;;;;;;12.82;6.95;;;;;;;;;;5013206;28;20028;-87
2023/04/08 02:58:29;;;;;;;14.48;7.05;;;;;;;;;;5020597;28;20033;-86
2023/04/08 03:00:55;;;;;;;13.88;7.40;;;;;;;;;;5047599;28;20144;-85
2023/04/08 03:03:26;;;;;;;15.20;7.68;;;;;;;;;;5051875;28;20009;-85
2023/04/08 03:05:52;;;;;;;15.45;6.82;;;;;;;;;;5025974;28;20092;-86
2023/04/08 03:08:18;;;;;;;16.33;7.80;;;;;;;;;;5014805;28;20538;-86
2023/04/08 03:10:43;;;;;;;15.65;8.82;;;;;;;;;;5032612;28;20030;-85
2023/04/08 03:13:08;;;;;;;13.40;7.30;;;;;;;;;;5029866;28;20104;-84
2023/04/08 03:15:34;;;;;;;18.35;7.30;;;;;;;;;;5027574;28;20029;-84
2023/04/08 03:17:59;;;;;;;15.38;8.27;;;;;;;;;;5029617;28;20087;-84
2023/04/08 03:20:24;;;;;;;15.60;7.32;;;;;;;;;;5030126;28;20017;-84
2023/04/08 03:22:50;;;;;;;17.48;8.35;;;;;;;;;;5023744;28;20025;-86
2023/04/08 03:25:15;;;;;;;16.02;8.32;;;;;;;;;;5030391;28;20033;-84
2023/04/08 03:27:41;;;;;;;16.63;7.45;;;;;;;;;;5032395;28;20101;-86
2023/04/08 03:30:06;;;;;;;19.10;7.93;;;;;;;;;;5027652;28;20025;-86
2023/04/08 03:32:32;;;;;;;15.35;7.65;;;;;;;;;;5017501;28;21440;-85
2023/04/08 03:34:57;;;;;;;17.35;8.10;;;;;;;;;;5033102;28;20499;-87
2023/04/08 03:37:22;;;;;;;17.40;7.47;;;;;;;;;;5037462;28;20632;-86
2023/04/08 03:39:48;;;;;;;18.67;8.07;;;;;;;;;;5040089;28;20030;-87
2023/04/08 03:42:13;;;;;;;19.08;7.78;;;;;;;;;;5040837;28;20032;-86
2023/04/08 03:44:39;;;;;;;12.90;7.45;;;;;;;;;;5036799;28;20052;-85
2023/04/08 03:47:04;;;;;;;18.98;7.55;;;;;;;;;;5041897;28;20052;-85
2023/04/08 03:49:29;;;;;;;15.75;7.75;;;;;;;;;;5045475;28;20021;-86
2023/04/08 03:51:55;;;;;;;13.80;7.95;;;;;;;;;;5036419;28;20033;-86
2023/04/08 03:54:20;;;;;;;18.42;7.50;;;;;;;;;;5061810;28;20037;-86
2023/04/08 03:56:45;;;;;;;17.63;9.23;;;;;;;;;;5045783;28;20032;-86
2023/04/08 03:59:11;;;;;;;19.20;8.23;;;;;;;;;;5039688;28;20006;-86
2023/04/08 04:01:36;;;;;;;18.42;8.27;;;;;;;;;;5037140;28;20043;-87
2023/04/08 04:04:01;;;;;;;21.40;8.32;;;;;;;;;;5016001;28;20083;-86
2023/04/08 04:06:27;;;;;;;15.27;8.98;;;;;;;;;;5021393;28;20063;-86
2023/04/08 04:08:54;;;;;;;14.43;7.93;;;;;;;;;;5039746;28;20033;-86
2023/04/08 04:11:20;;;;;;;16.17;8.52;;;;;;;;;;5038841;28;20092;-87
2023/04/08 04:13:46;;;;;;;15.90;7.85;;;;;;;;;;5019830;28;20120;-86
2023/04/08 04:16:11;;;;;;;21.25;9.10;;;;;;;;;;5039020;28;20524;-86
2023/04/08 04:18:36;;;;;;;18.50;8.02;;;;;;;;;;5036535;28;20116;-87
2023/04/08 04:21:05;;;;;;;17.38;9.43;;;;;;;;;;5034088;28;20473;-86
2023/04/08 04:23:31;;;;;;;15.40;7.82;;;;;;;;;;5038258;28;20033;-85
2023/04/08 04:25:56;;;;;;;18.10;9.05;;;;;;;;;;5034544;28;20079;-87
2023/04/08 04:28:21;;;;;;;21.60;9.27;;;;;;;;;;5038664;28;20028;-87
2023/04/08 04:30:47;;;;;;;13.60;7.32;;;;;;;;;;5033549;28;20044;-88
2023/04/08 04:33:12;;;;;;;15.75;7.78;;;;;;;;;;5038317;28;20033;-85
2023/04/08 04:35:38;;;;;;;17.42;8.27;;;;;;;;;;5036635;28;20044;-84
2023/04/08 04:38:09;;;;;;;17.50;8.73;;;;;;;;;;5035770;28;20033;-84
2023/04/08 04:40:35;;;;;;;16.83;8.70;;;;;;;;;;5036317;28;20030;-85
2023/04/08 04:43:00;;;;;;;16.20;8.35;;;;;;;;;;5036476;28;20020;-85
2023/04/08 04:45:25;;;;;;;15.70;8.43;;;;;;;;;;5017653;28;20017;-85
2023/04/08 04:47:51;;;;;;;17.73;8.38;;;;;;;;;;5033105;28;20026;-84
2023/04/08 04:50:16;;;;;;;17.10;8.15;;;;;;;;;;5033813;28;20101;-84
2023/04/08 04:52:41;;;;;;;15.40;7.85;;;;;;;;;;5031987;28;20098;-84
2023/04/08 04:55:07;;;;;;;21.80;9.18;;;;;;;;;;5033022;28;20028;-84
2023/04/08 04:57:33;;;;;;;21.15;8.60;;;;;;;;;;5016895;28;20038;-84
2023/04/08 04:59:58;;;;;;;14.98;8.35;;;;;;;;;;5029356;28;20106;-85
2023/04/08 05:02:23;;;;;;;21.00;8.25;;;;;;;;;;5032929;28;20037;-85
2023/04/08 05:04:48;;;;;;;22.15;8.93;;;;;;;;;;5033062;28;20043;-84
2023/04/08 05:07:14;;;;;;;22.80;8.10;;;;;;;;;;5033836;28;20041;-84
2023/04/08 05:09:39;;;;;;;22.25;8.77;;;;;;;;;;5032786;28;20427;-85
2023/04/08 05:12:05;;;;;;;20.77;9.32;;;;;;;;;;5016612;28;20049;-85
2023/04/08 05:14:30;;;;;;;14.98;8.55;;;;;;;;;;5031960;28;20033;-85
2023/04/08 05:16:56;;;;;;;19.10;8.60;;;;;;;;;;5025724;28;20025;-85
2023/04/08 05:19:21;;;;;;;19.52;8.95;;;;;;;;;;5027165;28;20052;-84
2023/04/08 05:21:47;;;;;;;14.02;8.07;;;;;;;;;;5031935;28;20025;-85
2023/04/08 05:24:12;;;;;;;16.95;9.02;;;;;;;;;;5031913;28;20024;-85
2023/04/08 05:26:37;;;;;;;19.70;9.77;;;;;;;;;;5032962;28;20033;-85
2023/04/08 05:29:03;;;;;;;15.35;8.50;;;;;;;;;;5032437;28;20033;-84
2023/04/08 05:31:28;;;;;;;19.55;9.43;;;;;;;;;;5014580;28;20041;-85
2023/04/08 05:33:53;;;;;;;17.55;9.15;;;;;;;;;;5015736;28;20041;-86
2023/04/08 05:36:19;;;;;;;19.83;10.07;;;;;;;;;;5035724;28;20059;-83
2023/04/08 05:38:44;;;;;;;28.15;9.95;;;;;;;;;;5015159;28;20029;-85
2023/04/08 05:41:10;;;;;;;22.85;9.10;;;;;;;;;;5034846;28;20037;-85
2023/04/08 05:43:35;;;;;;;15.88;8.30;;;;;;;;;;5033666;28;20029;-86
2023/04/08 05:46:10;;;;;;;22.83;9.70;;;;;;;;;;5036722;28;20134;-85
2023/04/08 05:48:35;;;;;;;17.45;9.23;;;;;;;;;;5035808;28;20052;-85
2023/04/08 05:51:01;;;;;;;15.20;7.80;;;;;;;;;;5016119;28;21329;-84
2023/04/08 05:53:26;;;;;;;21.90;9.63;;;;;;;;;;5036749;28;20056;-85
2023/04/08 05:55:51;;;;;;;21.00;9.23;;;;;;;;;;5021793;28;20029;-85
2023/04/08 05:58:17;;;;;;;21.50;9.30;;;;;;;;;;5037246;28;20092;-85
2023/04/08 06:00:42;;;;;;;18.90;10.35;;;;;;;;;;5033342;28;20121;-85
2023/04/08 06:03:07;;;;;;;19.75;9.27;;;;;;;;;;5020308;28;20038;-85
2023/04/08 06:05:33;;;;;;;17.15;8.65;;;;;;;;;;5046489;28;20018;-85
2023/04/08 06:07:58;;;;;;;19.08;9.10;;;;;;;;;;5037746;28;20021;-86
2023/04/08 06:10:23;;;;;;;18.55;9.45;;;;;;;;;;5033596;28;20037;-86
2023/04/08 06:12:49;;;;;;;16.08;8.95;;;;;;;;;;5034191;28;20449;-86
2023/04/08 06:15:15;;;;;;;17.02;8.88;;;;;;;;;;5033935;28;20025;-86
2023/04/08 06:17:40;;;;;;;20.33;9.68;;;;;;;;;;5034794;28;20464;-86
2023/04/08 06:20:08;;;;;;;16.58;9.32;;;;;;;;;;5034427;28;20029;-86
2023/04/08 06:22:33;;;;;;;21.00;10.85;;;;;;;;;;5034748;28;20069;-85
2023/04/08 06:24:58;;;;;;;17.85;10.18;;;;;;;;;;5029349;28;20104;-85
2023/04/08 06:27:24;;;;;;;17.35;9.68;;;;;;;;;;5032023;28;20025;-85
2023/04/08 06:29:50;;;;;;;15.63;7.95;;;;;;;;;;5032490;28;20025;-86
2023/04/08 06:32:16;;;;;;;14.10;8.48;;;;;;;;;;5014848;28;20029;-86
2023/04/08 06:34:44;;;;;;;15.57;8.80;;;;;;;;;;5023666;28;20032;-86
2023/04/08 06:37:09;;;;;;;15.90;7.97;;;;;;;;;;5026137;28;20164;-86
2023/04/08 06:39:35;;;;;;;17.20;9.48;;;;;;;;;;5032672;28;20053;-86
2023/04/08 06:42:00;;;;;;;18.83;9.63;;;;;;;;;;5035364;28;20021;-84
2023/04/08 06:44:25;;;;;;;15.43;8.15;;;;;;;;;;5036404;28;20032;-84
2023/04/08 06:46:51;;;;;;;19.45;9.48;;;;;;;;;;5015992;28;20025;-84
2023/04/08 06:49:16;;;;;;;18.05;9.70;;;;;;;;;;5037222;28;20045;-83
2023/04/08 06:51:41;;;;;;;18.02;8.70;;;;;;;;;;5036798;28;20013;-83
2023/04/08 06:54:08;;;;;;;19.02;9.50;;;;;;;;;;5035200;28;20026;-83
2023/04/08 06:56:34;;;;;;;12.93;8.25;;;;;;;;;;5033205;28;20041;-83
2023/04/08 06:59:00;;;;;;;18.95;8.88;;;;;;;;;;5033665;28;20040;-84
2023/04/08 07:01:25;;;;;;;14.80;9.05;;;;;;;;;;5017158;28;20432;-83
2023/04/08 07:03:51;;;;;;;12.85;8.10;;;;;;;;;;5037923;28;20029;-84
2023/04/08 07:06:16;;;;;;;18.02;9.43;;;;;;;;;;5019861;28;20037;-84
2023/04/08 07:08:41;;;;;;;20.80;8.80;;;;;;;;;;5035030;28;20029;-84
2023/04/08 07:11:07;;;;;;;19.92;9.70;;;;;;;;;;5036898;28;20025;-84
2023/04/08 07:13:32;;;;;;;21.73;9.05;;;;;;;;;;5036586;28;20113;-84
2023/04/08 07:15:58;;;;;;;20.13;9.15;;;;;;;;;;5039283;28;20111;-84
2023/04/08 07:18:23;;;;;;;14.93;7.75;;;;;;;;;;5041037;28;20017;-84
2023/04/08 07:20:55;;;;;;;16.58;8.55;;;;;;;;;;5040090;28;20029;-83
2023/04/08 07:23:20;;;;;;;18.15;9.43;;;;;;;;;;5037926;28;20025;-84
2023/04/08 07:25:46;;;;;;;15.82;8.05;;;;;;;;;;5035621;28;20129;-84
2023/04/08 07:28:12;;;;;;;18.00;8.70;;;;;;;;;;5018075;28;20055;-84
2023/04/08 07:30:37;;;;;;;13.38;8.20;;;;;;;;;;5035249;28;20025;-84
2023/04/08 07:33:03;;;;;;;13.43;7.35;;;;;;;;;;5037528;28;20040;-85
2023/04/08 07:35:30;;;;;;;13.68;8.02;;;;;;;;;;5016319;28;20029;-85
2023/04/08 07:37:56;;;;;;;14.73;7.93;;;;;;;;;;5035755;28;20030;-85
2023/04/08 07:40:21;;;;;;;14.20;7.53;;;;;;;;;;5023028;28;20088;-81
2023/04/08 07:42:48;;;;;;;13.88;8.18;;;;;;;;;;5032333;28;20026;-85
2023/04/08 07:45:13;;;;;;;12.18;6.80;;;;;;;;;;5032699;28;20112;-85
2023/04/08 07:47:39;;;;;;;10.85;6.95;;;;;;;;;;5029935;28;20049;-84
2023/04/08 07:50:05;;;;;;;11.25;7.40;;;;;;;;;;5035200;28;20037;-85
2023/04/08 07:52:31;;;;;;;11.50;7.00;;;;;;;;;;5030976;28;20021;-84
2023/04/08 07:54:56;;;;;;;10.02;6.28;;;;;;;;;;5040796;28;20032;-85
2023/04/08 07:57:21;;;;;;;10.60;6.88;;;;;;;;;;5032087;28;20080;-86
2023/04/08 07:59:47;;;;;;;12.48;6.70;;;;;;;;;;5038797;28;20061;-86
2023/04/08 08:02:12;;;;;;;11.32;6.60;;;;;;;;;;5034598;28;20033;-86
2023/04/08 08:04:37;;;;;;;11.30;7.47;;;;;;;;;;5036107;28;20029;-86
2023/04/08 08:07:03;;;;;;;11.05;6.45;;;;;;;;;;5040008;28;20022;-84
2023/04/08 08:09:28;;;;;;;12.57;7.40;;;;;;;;;;5021806;28;20030;-85
2023/04/08 08:11:53;;;;;;;10.63;6.45;;;;;;;;;;5036696;28;20026;-84
2023/04/08 08:14:19;;;;;;;12.38;7.35;;;;;;;;;;5027282;28;20052;-85
2023/04/08 08:16:44;;;;;;;13.25;7.60;;;;;;;;;;5024901;28;20032;-86
2023/04/08 08:19:11;;;;;;;11.63;6.47;;;;;;;;;;5036191;28;20545;-87
2023/04/08 08:21:36;;;;;;;9.82;7.03;;;;;;;;;;5019144;28;20043;-87
2023/04/08 08:24:02;;;;;;;13.80;6.70;;;;;;;;;;5030912;28;20112;-84
2023/04/08 08:26:27;;;;;;;12.10;6.50;;;;;;;;;;5032994;28;20038;-85
2023/04/08 08:28:53;;;;;;;14.68;7.15;;;;;;;;;;5030594;28;20045;-85
2023/04/08 08:31:21;;;;;;;10.30;6.63;;;;;;;;;;5038204;28;20033;-82
2023/04/08 08:33:49;;;;;;;11.60;7.20;;;;;;;;;;5034540;28;20500;-81
2023/04/08 08:36:15;;;;;;;10.02;6.32;;;;;;;;;;5034213;28;20025;-84
2023/04/08 08:38:40;;;;;;;11.32;6.82;;;;;;;;;;5036035;28;20112;-85
2023/04/08 08:41:05;;;;;;;10.30;6.80;;;;;;;;;;5032872;28;20040;-84
2023/04/08 08:43:32;;;;;;;11.63;7.40;;;;;;;;;;5044410;28;20034;-86
2023/04/08 08:45:58;;;;;;;9.68;6.57;;;;;;;;;;5040087;28;20087;-87
2023/04/08 08:48:24;;;;;;;8.77;6.57;;;;;;;;;;5020311;28;20041;-86
2023/04/08 08:50:49;;;;;;;10.32;6.07;;;;;;;;;;5037656;28;20013;-88
2023/04/08 08:53:15;;;;;;;9.75;6.32;;;;;;;;;;5011512;28;20033;-87
2023/04/08 08:55:40;;;;;;;11.43;7.53;;;;;;;;;;5030582;28;20175;-87
2023/04/08 08:58:06;;;;;;;12.18;6.57;;;;;;;;;;5011278;28;20037;-87
2023/04/08 09:00:38;;;;;;;9.82;6.55;;;;;;;;;;5024061;28;20101;-88
2023/04/08 09:03:17;;;;;;;11.07;7.18;;;;;;;;;;5027044;28;20496;-87
2023/04/08 09:05:55;;;;;;;9.65;5.78;;;;;;;;;;5014705;28;20049;-87
2023/04/08 09:08:28;;;;;;;11.45;6.50;;;;;;;;;;5030466;28;20038;-87
2023/04/08 09:10:55;;;;;;;11.68;6.55;;;;;;;;;;5027352;28;20080;-89
2023/04/08 09:13:23;;;;;;;12.20;7.53;;;;;;;;;;5027134;28;20048;-90
2023/04/08 09:16:10;;;;;;;12.13;7.13;;;;;;;;;;5010783;28;20033;-89
2023/04/08 09:18:37;;;;;;;8.57;6.18;;;;;;;;;;4998775;28;20022;-89
2023/04/08 09:21:04;;;;;;;9.52;6.65;;;;;;;;;;5013826;28;20128;-90
2023/04/08 09:23:58;;;;;;;10.05;6.90;;;;;;;;;;5016105;28;20436;-87
2023/04/08 09:26:24;;;;;;;8.98;6.32;;;;;;;;;;5017394;28;20420;-88
2023/04/08 09:29:06;;;;;;;12.80;6.53;;;;;;;;;;4999960;28;20786;-89
2023/04/08 09:31:40;;;;;;;12.35;6.80;;;;;;;;;;5006788;28;20026;-89
2023/04/08 09:34:16;;;;;;;9.73;6.55;;;;;;;;;;5009797;28;20093;-91
2023/04/08 09:36:43;;;;;;;8.68;6.15;;;;;;;;;;5036980;28;20048;-90
2023/04/08 09:39:09;;;;;;;13.45;7.32;;;;;;;;;;5037847;28;20041;-91
2023/04/08 09:41:35;;;;;;;11.02;6.97;;;;;;;;;;5025206;28;20080;-90
2023/04/08 09:44:03;;;;;;;9.85;6.47;;;;;;;;;;5016962;28;20117;-90
2023/04/08 09:47:07;;;;;;;11.45;7.13;;;;;;;;;;5003202;28;20528;-90
2023/04/08 09:49:35;;;;;;;9.90;6.80;;;;;;;;;;5014936;28;20029;-91
2023/04/08 09:52:10;;;;;;;11.95;6.97;;;;;;;;;;5016230;28;20093;-91
2023/04/08 09:54:51;;;;;;;11.65;6.93;;;;;;;;;;5043346;28;20044;-86
2023/04/08 09:57:38;;;;;;;12.35;7.97;;;;;;;;;;5036109;28;20076;-88
2023/04/08 10:00:14;;;;;;;10.43;6.78;;;;;;;;;;5043563;28;20086;-88
2023/04/08 10:02:55;;;;;;;8.52;6.32;;;;;;;;;;5051065;28;20038;-88
2023/04/08 10:05:25;;;;;;;12.73;6.63;;;;;;;;;;5024704;28;20037;-87
2023/04/08 10:07:51;;;;;;;10.18;5.88;;;;;;;;;;5032468;28;20030;-86
2023/04/08 10:10:18;;;;;;;10.40;6.97;;;;;;;;;;5051068;28;20013;-89
2023/04/08 10:12:43;;;;;;;11.30;6.30;;;;;;;;;;5019340;28;20021;-87
2023/04/08 10:15:25;;;;;;;11.35;6.32;;;;;;;;;;5034014;28;20052;-88
2023/04/08 10:17:54;;;;;;;12.90;6.60;;;;;;;;;;5034088;28;20035;-86
2023/04/08 10:20:35;;;;;;;9.50;6.47;;;;;;;;;;5004355;28;20044;-85
2023/04/08 10:23:02;;;;;;;11.02;6.45;;;;;;;;;;5001473;28;20080;-84
2023/04/08 10:25:29;;;;;;;8.68;6.20;;;;;;;;;;5015412;28;20048;-87
2023/04/08 10:27:55;;;;;;;11.23;7.13;;;;;;;;;;5049962;28;20047;-84
2023/04/08 10:30:26;;;;;;;9.73;4.97;;;;;;;;;;5042507;28;20312;-84
2023/04/08 10:32:55;;;;;;;10.63;5.57;;;;;;;;;;5030355;28;20087;-87
2023/04/08 10:35:42;;;;;;;9.20;5.00;;;;;;;;;;5034264;28;20067;-87
2023/04/08 10:38:08;;;;;;;9.40;5.70;;;;;;;;;;5005194;28;20090;-86
2023/04/08 10:40:41;;;;;;;9.85;5.95;;;;;;;;;;5037687;28;20057;-87
2023/04/08 10:43:08;;;;;;;10.45;5.90;;;;;;;;;;5038050;28;20025;-88
2023/04/08 10:45:34;;;;;;;11.57;6.28;;;;;;;;;;5009030;28;20386;-88
2023/04/08 10:48:13;;;;;;;9.38;6.13;;;;;;;;;;5001221;28;20397;-87
2023/04/08 10:50:38;;;;;;;10.45;6.05;;;;;;;;;;5032332;28;20028;-87
2023/04/08 10:53:04;;;;;;;9.00;5.80;;;;;;;;;;5013635;28;20053;-87
2023/04/08 10:55:30;;;;;;;10.55;6.20;;;;;;;;;;5019645;28;20013;-86
2023/04/08 10:58:07;;;;;;;13.52;6.88;;;;;;;;;;5028074;28;20108;-87
2023/04/08 11:00:38;;;;;;;8.90;5.78;;;;;;;;;;5012669;28;20026;-86
2023/04/08 11:03:06;;;;;;;11.10;6.78;;;;;;;;;;5002426;28;20370;-88
2023/04/08 11:05:32;;;;;;;12.88;6.35;;;;;;;;;;5018429;28;20021;-87
2023/04/08 11:08:01;;;;;;;9.45;5.32;;;;;;;;;;5032331;28;20025;-88
2023/04/08 11:10:27;;;;;;;10.57;6.07;;;;;;;;;;5016717;28;20043;-90
2023/04/08 11:12:57;;;;;;;13.05;5.85;;;;;;;;;;5017772;28;20091;-91
2023/04/08 11:15:29;;;;;;;9.52;5.28;;;;;;;;;;5008901;28;20032;-87
2023/04/08 11:17:55;;;;;;;9.30;5.55;;;;;;;;;;5024293;28;20505;-86
2023/04/08 11:20:21;;;;;;;11.10;6.35;;;;;;;;;;5024883;28;20029;-85
2023/04/08 11:22:47;;;;;;;8.38;6.07;;;;;;;;;;5034903;28;20025;-85
2023/04/08 11:25:12;;;;;;;9.00;5.65;;;;;;;;;;5031695;28;20025;-85
2023/04/08 11:27:39;;;;;;;11.05;5.93;;;;;;;;;;5007829;28;20497;-86
2023/04/08 11:30:06;;;;;;;8.18;5.70;;;;;;;;;;5029867;28;20045;-86
2023/04/08 11:32:32;;;;;;;9.85;6.13;;;;;;;;;;4997664;28;20463;-85
2023/04/08 11:35:03;;;;;;;9.73;5.97;;;;;;;;;;5007134;28;20025;-85
2023/04/08 11:37:39;;;;;;;10.00;6.57;;;;;;;;;;5027481;28;20021;-86
2023/04/08 11:40:09;;;;;;;12.48;6.25;;;;;;;;;;5024686;28;20028;-86
2023/04/08 11:42:34;;;;;;;8.98;5.88;;;;;;;;;;5016421;28;20042;-85
2023/04/08 11:45:06;;;;;;;8.18;5.97;;;;;;;;;;5034781;28;20029;-86
2023/04/08 11:47:32;;;;;;;9.73;6.07;;;;;;;;;;5031449;28;20381;-85
2023/04/08 11:49:58;;;;;;;12.93;5.60;;;;;;;;;;5026300;28;20021;-85
2023/04/08 11:52:45;;;;;;;10.38;6.13;;;;;;;;;;5024228;28;20094;-85
2023/04/08 11:55:11;;;;;;;7.70;5.13;;;;;;;;;;5027760;28;20042;-83
2023/04/08 11:57:38;;;;;;;10.05;6.38;;;;;;;;;;5013312;28;20427;-86
2023/04/08 12:00:05;;;;;;;8.55;6.18;;;;;;;;;;5038199;28;20075;-85
2023/04/08 12:02:31;;;;;;;9.43;6.15;;;;;;;;;;5013177;28;20053;-84
2023/04/08 12:04:56;;;;;;;11.45;6.45;;;;;;;;;;5036722;28;20025;-85
2023/04/08 12:07:21;;;;;;;9.50;5.95;;;;;;;;;;5031398;28;20017;-85
2023/04/08 12:09:47;;;;;;;8.32;5.63;;;;;;;;;;5025289;28;20548;-86
2023/04/08 12:12:12;;;;;;;10.65;6.95;;;;;;;;;;5036752;28;20022;-86
2023/04/08 12:14:37;;;;;;;13.20;6.32;;;;;;;;;;5032843;28;20029;-86
2023/04/08 12:17:05;;;;;;;9.77;5.97;;;;;;;;;;5036920;28;20490;-84
2023/04/08 12:19:30;;;;;;;9.50;5.40;;;;;;;;;;5013832;28;20013;-87
2023/04/08 12:21:56;;;;;;;9.23;5.68;;;;;;;;;;5033326;28;20030;-86
2023/04/08 12:24:21;;;;;;;10.05;5.82;;;;;;;;;;5030224;28;20017;-88
2023/04/08 12:26:47;;;;;;;9.43;5.63;;;;;;;;;;5017458;28;20551;-89
2023/04/08 12:29:12;;;;;;;10.88;5.63;;;;;;;;;;5030680;28;20029;-88
2023/04/08 12:31:38;;;;;;;10.73;5.95;;;;;;;;;;5033606;28;20025;-87
2023/04/08 12:34:03;;;;;;;15.13;6.45;;;;;;;;;;5029261;28;20021;-86
2023/04/08 12:36:28;;;;;;;8.38;5.50;;;;;;;;;;5021681;28;20111;-89
2023/04/08 12:38:54;;;;;;;9.60;5.75;;;;;;;;;;5020878;28;20420;-87
2023/04/08 12:41:19;;;;;;;9.60;6.28;;;;;;;;;;5017038;28;20033;-87
2023/04/08 12:43:45;;;;;;;8.98;5.82;;;;;;;;;;5015303;28;20036;-87
2023/04/08 12:46:10;;;;;;;11.45;6.22;;;;;;;;;;5016724;28;20041;-87
2023/04/08 12:48:36;;;;;;;9.98;6.05;;;;;;;;;;5036668;28;20022;-88
2023/04/08 12:51:02;;;;;;;10.98;6.32;;;;;;;;;;5035250;28;20038;-87
2023/04/08 12:53:27;;;;;;;14.18;6.35;;;;;;;;;;5015127;28;20029;-87
2023/04/08 12:55:55;;;;;;;10.15;6.07;;;;;;;;;;5031793;28;20018;-87
2023/04/08 12:58:22;;;;;;;9.23;6.13;;;;;;;;;;5025440;28;20571;-86
2023/04/08 13:00:48;;;;;;;8.15;6.28;;;;;;;;;;5006610;28;20177;-84
2023/04/08 13:03:16;;;;;;;12.63;5.95;;;;;;;;;;5020139;28;20085;-84
2023/04/08 13:05:41;;;;;;;8.88;5.78;;;;;;;;;;5032129;28;20030;-84
2023/04/08 13:08:06;;;;;;;10.20;5.68;;;;;;;;;;5039425;28;20032;-86
2023/04/08 13:10:32;;;;;;;9.38;5.53;;;;;;;;;;5023630;28;20030;-84
2023/04/08 13:12:57;;;;;;;10.10;6.85;;;;;;;;;;5034442;28;20041;-85
2023/04/08 13:15:23;;;;;;;10.07;6.53;;;;;;;;;;5038878;28;20033;-84
2023/04/08 13:17:48;;;;;;;8.88;6.25;;;;;;;;;;5038959;28;20083;-84
2023/04/08 13:20:14;;;;;;;11.38;6.30;;;;;;;;;;5038011;28;20124;-84
2023/04/08 13:22:40;;;;;;;10.45;6.25;;;;;;;;;;5022628;28;20029;-84
2023/04/08 13:25:06;;;;;;;8.18;5.85;;;;;;;;;;5023592;28;20033;-85
2023/04/08 13:27:31;;;;;;;7.97;5.65;;;;;;;;;;5032416;28;20025;-85
2023/04/08 13:29:57;;;;;;;7.40;5.65;;;;;;;;;;5039253;28;20026;-84
2023/04/08 13:32:22;;;;;;;8.27;6.05;;;;;;;;;;5039669;28;20034;-85
2023/04/08 13:34:48;;;;;;;9.50;6.03;;;;;;;;;;5021730;28;20048;-84
2023/04/08 13:37:13;;;;;;;8.65;5.70;;;;;;;;;;5036558;28;20018;-85
2023/04/08 13:39:38;;;;;;;9.05;5.95;;;;;;;;;;5037770;28;20435;-85
2023/04/08 13:42:04;;;;;;;8.35;5.57;;;;;;;;;;5022297;28;20025;-83
2023/04/08 13:44:29;;;;;;;9.98;6.00;;;;;;;;;;5027339;28;20033;-83
2023/04/08 13:46:54;;;;;;;7.60;5.72;;;;;;;;;;5020417;28;20029;-85
2023/04/08 13:49:20;;;;;;;8.82;6.60;;;;;;;;;;5037454;28;20025;-83
2023/04/08 13:51:45;;;;;;;10.27;6.43;;;;;;;;;;5049364;28;20435;-86
2023/04/08 13:54:10;;;;;;;7.20;4.93;;;;;;;;;;5019561;28;20394;-83
2023/04/08 13:56:36;;;;;;;9.35;6.43;;;;;;;;;;5025854;28;20025;-84
2023/04/08 13:59:01;;;;;;;7.63;5.78;;;;;;;;;;5024868;28;20025;-83
2023/04/08 14:01:26;;;;;;;9.13;5.30;;;;;;;;;;5038647;28;20037;-83
2023/04/08 14:03:52;;;;;;;7.47;5.20;;;;;;;;;;5026805;28;20045;-84
2023/04/08 14:06:17;;;;;;;7.93;5.32;;;;;;;;;;5045701;28;20087;-85
2023/04/08 14:08:42;;;;;;;8.20;5.80;;;;;;;;;;5049924;28;20088;-82
2023/04/08 14:11:08;;;;;;;8.88;5.70;;;;;;;;;;5043937;28;20058;-85
2023/04/08 14:13:33;;;;;;;8.57;5.82;;;;;;;;;;5039669;28;20029;-85
2023/04/08 14:16:01;;;;;;;8.98;5.97;;;;;;;;;;5053581;28;20113;-87
2023/04/08 14:18:26;;;;;;;8.70;5.13;;;;;;;;;;5041421;28;20101;-86
2023/04/08 14:20:52;;;;;;;7.95;5.80;;;;;;;;;;5034953;28;20061;-85
2023/04/08 14:23:17;;;;;;;8.10;5.10;;;;;;;;;;5040498;28;20024;-83
2023/04/08 14:25:43;;;;;;;7.72;4.82;;;;;;;;;;5039447;28;20025;-84
2023/04/08 14:28:08;;;;;;;7.30;5.13;;;;;;;;;;5019871;28;20022;-84
2023/04/08 14:30:34;;;;;;;8.40;5.70;;;;;;;;;;5043645;28;20060;-84
2023/04/08 14:33:00;;;;;;;10.77;5.68;;;;;;;;;;5052244;28;20013;-84
2023/04/08 14:35:25;;;;;;;7.32;5.30;;;;;;;;;;5022548;28;20082;-86
2023/04/08 14:37:51;;;;;;;8.02;5.55;;;;;;;;;;5035268;28;20496;-86